sensor_id;sensor_type;location;lat;lon;timestamp;P1;durP1;ratioP1;P2;durP2;ratioP2
10387;SDS011;5240;51.128;4.566;2023-05-10T00:01:35;17.05;;;11.65;;
10387;SDS011;5240;51.128;4.566;2023-05-10T00:04:02;16.30;;;12.70;;
10387;SDS011;5240;51.128;4.566;2023-05-10T00:06:29;20.10;;;12.88;;
10387;SDS011;5240;51.128;4.566;2023-05-10T00:08:58;15.05;;;11.88;;
10387;SDS011;5240;51.128;4.566;2023-05-10T00:11:25;21.38;;;12.93;;
10387;SDS011;5240;51.128;4.566;2023-05-10T00:13:52;17.95;;;11.90;;
10387;SDS011;5240;51.128;4.566;2023-05-10T00:16:19;18.42;;;12.40;;
10387;SDS011;5240;51.128;4.566;2023-05-10T00:18:46;17.70;;;11.85;;
10387;SDS011;5240;51.128;4.566;2023-05-10T00:21:13;22.08;;;12.15;;
10387;SDS011;5240;51.128;4.566;2023-05-10T00:23:40;19.20;;;13.00;;
10387;SDS011;5240;51.128;4.566;2023-05-10T00:26:08;22.60;;;14.00;;
10387;SDS011;5240;51.128;4.566;2023-05-10T00:28:35;19.20;;;12.85;;
10387;SDS011;5240;51.128;4.566;2023-05-10T00:31:02;17.85;;;13.70;;
10387;SDS011;5240;51.128;4.566;2023-05-10T00:33:30;22.10;;;14.75;;
10387;SDS011;5240;51.128;4.566;2023-05-10T00:35:57;21.08;;;14.50;;
10387;SDS011;5240;51.128;4.566;2023-05-10T00:38:24;20.20;;;14.90;;
10387;SDS011;5240;51.128;4.566;2023-05-10T00:40:51;18.70;;;14.60;;
10387;SDS011;5240;51.128;4.566;2023-05-10T00:43:19;24.92;;;15.82;;
10387;SDS011;5240;51.128;4.566;2023-05-10T00:45:46;20.67;;;14.77;;
10387;SDS011;5240;51.128;4.566;2023-05-10T00:48:13;29.17;;;15.38;;
10387;SDS011;5240;51.128;4.566;2023-05-10T00:50:40;19.90;;;14.65;;
10387;SDS011;5240;51.128;4.566;2023-05-10T00:53:07;21.88;;;14.15;;
10387;SDS011;5240;51.128;4.566;2023-05-10T00:55:35;22.83;;;14.95;;
10387;SDS011;5240;51.128;4.566;2023-05-10T00:58:02;21.60;;;15.30;;
10387;SDS011;5240;51.128;4.566;2023-05-10T01:00:32;22.25;;;14.77;;
10387;SDS011;5240;51.128;4.566;2023-05-10T01:03:00;24.00;;;14.45;;
10387;SDS011;5240;51.128;4.566;2023-05-10T01:05:27;25.27;;;14.60;;
10387;SDS011;5240;51.128;4.566;2023-05-10T01:07:54;27.30;;;14.63;;
10387;SDS011;5240;51.128;4.566;2023-05-10T01:10:22;20.30;;;14.40;;
10387;SDS011;5240;51.128;4.566;2023-05-10T01:12:50;21.85;;;15.05;;
10387;SDS011;5240;51.128;4.566;2023-05-10T01:15:17;21.98;;;15.02;;
10387;SDS011;5240;51.128;4.566;2023-05-10T01:17:47;27.52;;;14.98;;
10387;SDS011;5240;51.128;4.566;2023-05-10T01:20:15;27.52;;;18.48;;
10387;SDS011;5240;51.128;4.566;2023-05-10T01:28:39;31.25;;;19.67;;
10387;SDS011;5240;51.128;4.566;2023-05-10T01:31:27;31.17;;;19.60;;
10387;SDS011;5240;51.128;4.566;2023-05-10T01:34:06;26.08;;;17.70;;
10387;SDS011;5240;51.128;4.566;2023-05-10T01:36:38;27.70;;;18.02;;
10387;SDS011;5240;51.128;4.566;2023-05-10T01:39:11;26.20;;;17.02;;
10387;SDS011;5240;51.128;4.566;2023-05-10T01:41:45;24.27;;;16.42;;
10387;SDS011;5240;51.128;4.566;2023-05-10T01:44:20;22.27;;;16.27;;
10387;SDS011;5240;51.128;4.566;2023-05-10T01:46:57;25.55;;;15.57;;
10387;SDS011;5240;51.128;4.566;2023-05-10T01:49:31;27.13;;;16.20;;
10387;SDS011;5240;51.128;4.566;2023-05-10T01:52:03;20.98;;;15.45;;
10387;SDS011;5240;51.128;4.566;2023-05-10T01:54:34;21.10;;;15.73;;
10387;SDS011;5240;51.128;4.566;2023-05-10T01:57:05;22.05;;;16.40;;
10387;SDS011;5240;51.128;4.566;2023-05-10T01:59:35;25.95;;;15.57;;
10387;SDS011;5240;51.128;4.566;2023-05-10T02:02:05;19.60;;;15.00;;
10387;SDS011;5240;51.128;4.566;2023-05-10T02:04:38;22.83;;;14.95;;
10387;SDS011;5240;51.128;4.566;2023-05-10T02:07:06;22.88;;;15.05;;
10387;SDS011;5240;51.128;4.566;2023-05-10T02:09:35;22.90;;;15.95;;
10387;SDS011;5240;51.128;4.566;2023-05-10T02:12:04;20.65;;;15.32;;
10387;SDS011;5240;51.128;4.566;2023-05-10T02:14:34;21.15;;;15.60;;
10387;SDS011;5240;51.128;4.566;2023-05-10T02:17:03;16.13;;;14.02;;
10387;SDS011;5240;51.128;4.566;2023-05-10T02:19:32;19.15;;;14.77;;
10387;SDS011;5240;51.128;4.566;2023-05-10T02:22:03;22.10;;;15.02;;
10387;SDS011;5240;51.128;4.566;2023-05-10T02:24:31;21.50;;;14.93;;
10387;SDS011;5240;51.128;4.566;2023-05-10T02:26:59;21.25;;;14.15;;
10387;SDS011;5240;51.128;4.566;2023-05-10T02:29:28;20.45;;;14.95;;
10387;SDS011;5240;51.128;4.566;2023-05-10T02:31:57;20.90;;;15.27;;
10387;SDS011;5240;51.128;4.566;2023-05-10T02:34:25;24.77;;;17.92;;
10387;SDS011;5240;51.128;4.566;2023-05-10T02:36:53;23.70;;;17.23;;
10387;SDS011;5240;51.128;4.566;2023-05-10T02:39:22;23.98;;;17.25;;
10387;SDS011;5240;51.128;4.566;2023-05-10T02:41:51;23.70;;;17.63;;
10387;SDS011;5240;51.128;4.566;2023-05-10T02:44:20;25.08;;;18.52;;
10387;SDS011;5240;51.128;4.566;2023-05-10T02:46:48;27.02;;;17.48;;
10387;SDS011;5240;51.128;4.566;2023-05-10T02:49:16;24.17;;;17.50;;
10387;SDS011;5240;51.128;4.566;2023-05-10T02:51:45;24.23;;;17.83;;
10387;SDS011;5240;51.128;4.566;2023-05-10T02:54:18;26.55;;;19.23;;
10387;SDS011;5240;51.128;4.566;2023-05-10T02:56:50;26.30;;;19.30;;
10387;SDS011;5240;51.128;4.566;2023-05-10T02:59:20;23.73;;;18.77;;
10387;SDS011;5240;51.128;4.566;2023-05-10T03:01:47;22.38;;;18.52;;
10387;SDS011;5240;51.128;4.566;2023-05-10T03:04:14;27.67;;;19.67;;
10387;SDS011;5240;51.128;4.566;2023-05-10T03:06:41;26.92;;;20.40;;
10387;SDS011;5240;51.128;4.566;2023-05-10T03:09:08;25.17;;;19.25;;
10387;SDS011;5240;51.128;4.566;2023-05-10T03:11:39;27.98;;;19.15;;
10387;SDS011;5240;51.128;4.566;2023-05-10T03:14:22;27.02;;;20.33;;
10387;SDS011;5240;51.128;4.566;2023-05-10T03:17:00;26.80;;;20.63;;
10387;SDS011;5240;51.128;4.566;2023-05-10T03:19:36;27.90;;;19.73;;
10387;SDS011;5240;51.128;4.566;2023-05-10T03:22:10;29.33;;;21.67;;
10387;SDS011;5240;51.128;4.566;2023-05-10T03:24:39;29.63;;;22.20;;
10387;SDS011;5240;51.128;4.566;2023-05-10T03:27:08;30.80;;;23.42;;
10387;SDS011;5240;51.128;4.566;2023-05-10T03:29:37;32.92;;;24.35;;
10387;SDS011;5240;51.128;4.566;2023-05-10T03:32:05;37.05;;;26.63;;
10387;SDS011;5240;51.128;4.566;2023-05-10T03:34:32;35.72;;;27.55;;
10387;SDS011;5240;51.128;4.566;2023-05-10T03:37:01;35.72;;;26.42;;
10387;SDS011;5240;51.128;4.566;2023-05-10T03:39:28;38.25;;;28.25;;
10387;SDS011;5240;51.128;4.566;2023-05-10T03:41:55;36.35;;;26.92;;
10387;SDS011;5240;51.128;4.566;2023-05-10T03:44:22;38.38;;;27.92;;
10387;SDS011;5240;51.128;4.566;2023-05-10T03:46:50;55.83;;;35.58;;
10387;SDS011;5240;51.128;4.566;2023-05-10T03:49:17;59.80;;;38.03;;
10387;SDS011;5240;51.128;4.566;2023-05-10T03:51:44;76.00;;;45.30;;
10387;SDS011;5240;51.128;4.566;2023-05-10T03:54:11;83.05;;;50.15;;
10387;SDS011;5240;51.128;4.566;2023-05-10T03:56:38;88.18;;;49.33;;
10387;SDS011;5240;51.128;4.566;2023-05-10T03:59:05;87.85;;;50.22;;
10387;SDS011;5240;51.128;4.566;2023-05-10T04:01:33;76.50;;;46.30;;
10387;SDS011;5240;51.128;4.566;2023-05-10T04:04:02;72.00;;;45.25;;
10387;SDS011;5240;51.128;4.566;2023-05-10T04:06:29;71.30;;;42.60;;
10387;SDS011;5240;51.128;4.566;2023-05-10T04:08:56;65.03;;;38.47;;
10387;SDS011;5240;51.128;4.566;2023-05-10T04:11:24;59.03;;;39.15;;
10387;SDS011;5240;51.128;4.566;2023-05-10T04:13:52;55.05;;;34.97;;
10387;SDS011;5240;51.128;4.566;2023-05-10T04:16:19;52.00;;;33.35;;
10387;SDS011;5240;51.128;4.566;2023-05-10T04:18:45;49.45;;;32.05;;
10387;SDS011;5240;51.128;4.566;2023-05-10T04:21:14;48.42;;;31.92;;
10387;SDS011;5240;51.128;4.566;2023-05-10T04:23:41;47.90;;;33.10;;
10387;SDS011;5240;51.128;4.566;2023-05-10T04:26:08;51.15;;;32.83;;
10387;SDS011;5240;51.128;4.566;2023-05-10T04:28:35;51.00;;;33.25;;
10387;SDS011;5240;51.128;4.566;2023-05-10T04:31:03;55.45;;;34.10;;
10387;SDS011;5240;51.128;4.566;2023-05-10T04:33:31;49.80;;;32.85;;
10387;SDS011;5240;51.128;4.566;2023-05-10T04:35:59;52.45;;;33.45;;
10387;SDS011;5240;51.128;4.566;2023-05-10T04:38:27;50.70;;;33.50;;
10387;SDS011;5240;51.128;4.566;2023-05-10T04:40:55;56.80;;;34.00;;
10387;SDS011;5240;51.128;4.566;2023-05-10T04:43:30;51.40;;;32.90;;
10387;SDS011;5240;51.128;4.566;2023-05-10T04:45:57;47.58;;;31.83;;
10387;SDS011;5240;51.128;4.566;2023-05-10T04:48:24;54.20;;;33.97;;
10387;SDS011;5240;51.128;4.566;2023-05-10T04:50:51;50.40;;;32.92;;
10387;SDS011;5240;51.128;4.566;2023-05-10T04:53:18;49.95;;;32.80;;
10387;SDS011;5240;51.128;4.566;2023-05-10T04:55:46;53.58;;;33.70;;
10387;SDS011;5240;51.128;4.566;2023-05-10T04:58:13;52.67;;;33.63;;
10387;SDS011;5240;51.128;4.566;2023-05-10T05:00:41;56.22;;;34.03;;
10387;SDS011;5240;51.128;4.566;2023-05-10T05:03:08;56.47;;;36.30;;
10387;SDS011;5240;51.128;4.566;2023-05-10T05:05:35;58.78;;;36.28;;
10387;SDS011;5240;51.128;4.566;2023-05-10T05:08:02;59.25;;;36.95;;
10387;SDS011;5240;51.128;4.566;2023-05-10T05:10:29;58.63;;;36.30;;
10387;SDS011;5240;51.128;4.566;2023-05-10T05:12:57;58.53;;;38.03;;
10387;SDS011;5240;51.128;4.566;2023-05-10T05:15:24;59.15;;;37.33;;
10387;SDS011;5240;51.128;4.566;2023-05-10T05:17:51;60.15;;;38.08;;
10387;SDS011;5240;51.128;4.566;2023-05-10T05:20:18;56.90;;;37.65;;
10387;SDS011;5240;51.128;4.566;2023-05-10T05:22:45;57.28;;;37.30;;
10387;SDS011;5240;51.128;4.566;2023-05-10T05:25:12;57.22;;;36.40;;
10387;SDS011;5240;51.128;4.566;2023-05-10T05:27:40;60.10;;;37.17;;
10387;SDS011;5240;51.128;4.566;2023-05-10T05:30:09;55.83;;;35.90;;
10387;SDS011;5240;51.128;4.566;2023-05-10T05:32:36;54.28;;;37.38;;
10387;SDS011;5240;51.128;4.566;2023-05-10T05:35:03;57.58;;;37.30;;
10387;SDS011;5240;51.128;4.566;2023-05-10T05:37:31;53.70;;;35.63;;
10387;SDS011;5240;51.128;4.566;2023-05-10T05:39:58;51.90;;;34.78;;
10387;SDS011;5240;51.128;4.566;2023-05-10T05:42:26;50.15;;;34.47;;
10387;SDS011;5240;51.128;4.566;2023-05-10T05:44:53;52.63;;;35.70;;
10387;SDS011;5240;51.128;4.566;2023-05-10T05:47:22;51.00;;;35.15;;
10387;SDS011;5240;51.128;4.566;2023-05-10T05:49:49;52.10;;;35.22;;
10387;SDS011;5240;51.128;4.566;2023-05-10T05:52:16;51.70;;;35.67;;
10387;SDS011;5240;51.128;4.566;2023-05-10T05:54:43;53.40;;;38.10;;
10387;SDS011;5240;51.128;4.566;2023-05-10T05:57:10;62.50;;;38.88;;
10387;SDS011;5240;51.128;4.566;2023-05-10T05:59:37;58.20;;;38.35;;
10387;SDS011;5240;51.128;4.566;2023-05-10T06:02:07;61.78;;;39.85;;
10387;SDS011;5240;51.128;4.566;2023-05-10T06:04:35;60.80;;;39.95;;
10387;SDS011;5240;51.128;4.566;2023-05-10T06:07:02;55.17;;;40.08;;
10387;SDS011;5240;51.128;4.566;2023-05-10T06:09:29;51.30;;;36.72;;
10387;SDS011;5240;51.128;4.566;2023-05-10T06:11:57;49.88;;;36.22;;
10387;SDS011;5240;51.128;4.566;2023-05-10T06:14:24;44.53;;;33.50;;
10387;SDS011;5240;51.128;4.566;2023-05-10T06:16:52;47.08;;;34.42;;
10387;SDS011;5240;51.128;4.566;2023-05-10T06:19:19;46.92;;;34.70;;
10387;SDS011;5240;51.128;4.566;2023-05-10T06:21:48;44.83;;;34.22;;
10387;SDS011;5240;51.128;4.566;2023-05-10T06:24:15;40.22;;;32.25;;
10387;SDS011;5240;51.128;4.566;2023-05-10T06:26:42;42.88;;;31.63;;
10387;SDS011;5240;51.128;4.566;2023-05-10T06:29:17;39.53;;;31.58;;
10387;SDS011;5240;51.128;4.566;2023-05-10T06:31:44;39.55;;;30.25;;
10387;SDS011;5240;51.128;4.566;2023-05-10T06:34:13;40.90;;;31.50;;
10387;SDS011;5240;51.128;4.566;2023-05-10T06:36:41;45.85;;;32.15;;
10387;SDS011;5240;51.128;4.566;2023-05-10T06:39:09;38.47;;;29.52;;
10387;SDS011;5240;51.128;4.566;2023-05-10T06:41:41;36.05;;;28.85;;
10387;SDS011;5240;51.128;4.566;2023-05-10T06:44:09;36.33;;;29.25;;
10387;SDS011;5240;51.128;4.566;2023-05-10T06:46:38;35.38;;;27.40;;
10387;SDS011;5240;51.128;4.566;2023-05-10T06:49:07;38.00;;;27.95;;
10387;SDS011;5240;51.128;4.566;2023-05-10T06:51:36;36.22;;;28.10;;
10387;SDS011;5240;51.128;4.566;2023-05-10T06:54:03;36.20;;;26.58;;
10387;SDS011;5240;51.128;4.566;2023-05-10T06:56:33;33.55;;;26.67;;
10387;SDS011;5240;51.128;4.566;2023-05-10T06:59:01;35.25;;;26.05;;
10387;SDS011;5240;51.128;4.566;2023-05-10T07:01:28;31.25;;;26.10;;
10387;SDS011;5240;51.128;4.566;2023-05-10T07:03:55;34.45;;;26.13;;
10387;SDS011;5240;51.128;4.566;2023-05-10T07:06:22;33.42;;;26.90;;
10387;SDS011;5240;51.128;4.566;2023-05-10T07:08:50;31.30;;;25.63;;
10387;SDS011;5240;51.128;4.566;2023-05-10T07:11:17;34.22;;;26.05;;
10387;SDS011;5240;51.128;4.566;2023-05-10T07:13:46;30.98;;;24.77;;
10387;SDS011;5240;51.128;4.566;2023-05-10T07:16:14;32.47;;;25.58;;
10387;SDS011;5240;51.128;4.566;2023-05-10T07:31:56;35.08;;;26.40;;
10387;SDS011;5240;51.128;4.566;2023-05-10T07:34:23;33.78;;;25.45;;
10387;SDS011;5240;51.128;4.566;2023-05-10T07:36:51;35.42;;;27.33;;
10387;SDS011;5240;51.128;4.566;2023-05-10T07:39:18;33.25;;;27.83;;
10387;SDS011;5240;51.128;4.566;2023-05-10T07:41:46;37.17;;;28.08;;
10387;SDS011;5240;51.128;4.566;2023-05-10T07:44:13;38.53;;;28.25;;
10387;SDS011;5240;51.128;4.566;2023-05-10T07:46:43;34.40;;;27.77;;
10387;SDS011;5240;51.128;4.566;2023-05-10T07:49:12;33.83;;;26.15;;
10387;SDS011;5240;51.128;4.566;2023-05-10T07:56:48;31.63;;;25.60;;
10387;SDS011;5240;51.128;4.566;2023-05-10T07:59:16;35.53;;;27.30;;
10387;SDS011;5240;51.128;4.566;2023-05-10T08:01:44;32.22;;;25.88;;
10387;SDS011;5240;51.128;4.566;2023-05-10T08:04:12;32.00;;;25.00;;
10387;SDS011;5240;51.128;4.566;2023-05-10T08:06:42;34.13;;;26.55;;
10387;SDS011;5240;51.128;4.566;2023-05-10T08:09:23;29.15;;;23.55;;
10387;SDS011;5240;51.128;4.566;2023-05-10T08:11:51;31.30;;;23.45;;
10387;SDS011;5240;51.128;4.566;2023-05-10T08:17:08;28.17;;;24.23;;
10387;SDS011;5240;51.128;4.566;2023-05-10T08:22:48;26.38;;;22.58;;
10387;SDS011;5240;51.128;4.566;2023-05-10T08:25:27;27.42;;;21.25;;
10387;SDS011;5240;51.128;4.566;2023-05-10T08:28:16;27.45;;;21.83;;
10387;SDS011;5240;51.128;4.566;2023-05-10T08:30:43;26.05;;;21.98;;
10387;SDS011;5240;51.128;4.566;2023-05-10T08:33:10;28.58;;;22.58;;
10387;SDS011;5240;51.128;4.566;2023-05-10T08:35:37;26.92;;;22.23;;
10387;SDS011;5240;51.128;4.566;2023-05-10T08:38:06;29.85;;;24.13;;
10387;SDS011;5240;51.128;4.566;2023-05-10T08:40:33;28.20;;;22.98;;
10387;SDS011;5240;51.128;4.566;2023-05-10T08:43:04;27.30;;;23.02;;
10387;SDS011;5240;51.128;4.566;2023-05-10T08:45:32;26.45;;;21.00;;
10387;SDS011;5240;51.128;4.566;2023-05-10T08:48:05;25.75;;;22.65;;
10387;SDS011;5240;51.128;4.566;2023-05-10T08:50:34;24.45;;;21.73;;
10387;SDS011;5240;51.128;4.566;2023-05-10T08:53:04;21.90;;;19.48;;
10387;SDS011;5240;51.128;4.566;2023-05-10T08:55:36;21.50;;;18.80;;
10387;SDS011;5240;51.128;4.566;2023-05-10T08:58:03;24.13;;;18.95;;
10387;SDS011;5240;51.128;4.566;2023-05-10T09:00:31;21.92;;;18.67;;
10387;SDS011;5240;51.128;4.566;2023-05-10T09:02:59;22.05;;;18.58;;
10387;SDS011;5240;51.128;4.566;2023-05-10T09:05:27;22.17;;;19.77;;
10387;SDS011;5240;51.128;4.566;2023-05-10T09:07:55;22.60;;;19.52;;
10387;SDS011;5240;51.128;4.566;2023-05-10T09:10:24;22.80;;;19.00;;
10387;SDS011;5240;51.128;4.566;2023-05-10T09:12:54;23.58;;;20.60;;
10387;SDS011;5240;51.128;4.566;2023-05-10T09:15:24;24.50;;;20.58;;
10387;SDS011;5240;51.128;4.566;2023-05-10T09:18:06;27.73;;;20.85;;
10387;SDS011;5240;51.128;4.566;2023-05-10T09:20:34;24.25;;;20.70;;
10387;SDS011;5240;51.128;4.566;2023-05-10T09:23:02;22.60;;;19.90;;
10387;SDS011;5240;51.128;4.566;2023-05-10T09:25:31;24.25;;;19.67;;
10387;SDS011;5240;51.128;4.566;2023-05-10T09:28:00;32.60;;;18.63;;
10387;SDS011;5240;51.128;4.566;2023-05-10T09:30:27;21.33;;;16.73;;
10387;SDS011;5240;51.128;4.566;2023-05-10T09:32:56;21.45;;;16.33;;
10387;SDS011;5240;51.128;4.566;2023-05-10T09:35:25;21.25;;;15.77;;
10387;SDS011;5240;51.128;4.566;2023-05-10T09:37:55;18.92;;;15.57;;
10387;SDS011;5240;51.128;4.566;2023-05-10T09:40:24;21.42;;;15.82;;
10387;SDS011;5240;51.128;4.566;2023-05-10T09:42:55;24.17;;;16.02;;
10387;SDS011;5240;51.128;4.566;2023-05-10T09:45:24;20.48;;;15.98;;
10387;SDS011;5240;51.128;4.566;2023-05-10T09:47:52;22.60;;;16.67;;
10387;SDS011;5240;51.128;4.566;2023-05-10T09:50:19;23.70;;;15.27;;
10387;SDS011;5240;51.128;4.566;2023-05-10T09:52:47;20.80;;;15.05;;
10387;SDS011;5240;51.128;4.566;2023-05-10T09:55:18;20.85;;;15.27;;
10387;SDS011;5240;51.128;4.566;2023-05-10T09:57:49;20.75;;;14.10;;
10387;SDS011;5240;51.128;4.566;2023-05-10T10:00:37;20.00;;;14.98;;
10387;SDS011;5240;51.128;4.566;2023-05-10T10:21:12;17.75;;;13.85;;
10387;SDS011;5240;51.128;4.566;2023-05-10T10:23:41;16.48;;;13.93;;
10387;SDS011;5240;51.128;4.566;2023-05-10T10:26:08;16.23;;;13.20;;
10387;SDS011;5240;51.128;4.566;2023-05-10T10:28:39;18.23;;;13.35;;
10387;SDS011;5240;51.128;4.566;2023-05-10T10:31:17;15.10;;;12.55;;
10387;SDS011;5240;51.128;4.566;2023-05-10T10:34:03;19.85;;;13.13;;
10387;SDS011;5240;51.128;4.566;2023-05-10T10:36:34;16.60;;;12.80;;
10387;SDS011;5240;51.128;4.566;2023-05-10T10:39:08;17.50;;;12.18;;
10387;SDS011;5240;51.128;4.566;2023-05-10T10:41:37;16.88;;;12.40;;
10387;SDS011;5240;51.128;4.566;2023-05-10T10:49:50;13.43;;;10.95;;
10387;SDS011;5240;51.128;4.566;2023-05-10T10:52:23;19.88;;;11.63;;
10387;SDS011;5240;51.128;4.566;2023-05-10T10:54:57;13.77;;;10.82;;
10387;SDS011;5240;51.128;4.566;2023-05-10T10:57:26;13.75;;;11.32;;
10387;SDS011;5240;51.128;4.566;2023-05-10T11:02:45;13.82;;;10.75;;
10387;SDS011;5240;51.128;4.566;2023-05-10T11:05:23;14.32;;;11.00;;
10387;SDS011;5240;51.128;4.566;2023-05-10T11:08:07;15.15;;;11.63;;
10387;SDS011;5240;51.128;4.566;2023-05-10T11:10:39;12.85;;;10.57;;
10387;SDS011;5240;51.128;4.566;2023-05-10T11:13:17;15.27;;;11.10;;
10387;SDS011;5240;51.128;4.566;2023-05-10T11:15:53;12.40;;;10.45;;
10387;SDS011;5240;51.128;4.566;2023-05-10T11:18:23;14.50;;;11.27;;
10387;SDS011;5240;51.128;4.566;2023-05-10T11:20:51;13.20;;;10.80;;
10387;SDS011;5240;51.128;4.566;2023-05-10T11:23:22;14.07;;;11.68;;
10387;SDS011;5240;51.128;4.566;2023-05-10T11:25:49;12.40;;;11.10;;
10387;SDS011;5240;51.128;4.566;2023-05-10T11:28:17;12.18;;;10.73;;
10387;SDS011;5240;51.128;4.566;2023-05-10T11:30:45;13.23;;;10.27;;
10387;SDS011;5240;51.128;4.566;2023-05-10T11:33:15;10.27;;;9.35;;
10387;SDS011;5240;51.128;4.566;2023-05-10T11:35:44;12.60;;;9.95;;
10387;SDS011;5240;51.128;4.566;2023-05-10T11:38:12;12.60;;;9.85;;
10387;SDS011;5240;51.128;4.566;2023-05-10T11:40:41;10.68;;;9.55;;
10387;SDS011;5240;51.128;4.566;2023-05-10T11:43:09;11.00;;;9.60;;
10387;SDS011;5240;51.128;4.566;2023-05-10T11:45:37;10.52;;;9.52;;
10387;SDS011;5240;51.128;4.566;2023-05-10T11:48:06;11.93;;;10.05;;
10387;SDS011;5240;51.128;4.566;2023-05-10T11:50:33;14.38;;;9.80;;
10387;SDS011;5240;51.128;4.566;2023-05-10T11:53:00;10.15;;;9.10;;
10387;SDS011;5240;51.128;4.566;2023-05-10T11:55:27;10.23;;;9.07;;
10387;SDS011;5240;51.128;4.566;2023-05-10T11:58:00;10.55;;;9.05;;
10387;SDS011;5240;51.128;4.566;2023-05-10T12:00:28;9.70;;;8.75;;
10387;SDS011;5240;51.128;4.566;2023-05-10T12:02:55;11.32;;;9.15;;
10387;SDS011;5240;51.128;4.566;2023-05-10T12:05:23;11.73;;;9.20;;
10387;SDS011;5240;51.128;4.566;2023-05-10T12:07:50;10.77;;;8.45;;
10387;SDS011;5240;51.128;4.566;2023-05-10T12:10:17;9.98;;;8.82;;
10387;SDS011;5240;51.128;4.566;2023-05-10T12:12:52;10.70;;;8.60;;
10387;SDS011;5240;51.128;4.566;2023-05-10T12:15:21;10.95;;;8.40;;
10387;SDS011;5240;51.128;4.566;2023-05-10T12:17:49;9.88;;;8.30;;
10387;SDS011;5240;51.128;4.566;2023-05-10T12:20:17;9.63;;;8.63;;
10387;SDS011;5240;51.128;4.566;2023-05-10T12:22:46;13.32;;;8.50;;
10387;SDS011;5240;51.128;4.566;2023-05-10T12:25:15;12.10;;;9.02;;
10387;SDS011;5240;51.128;4.566;2023-05-10T12:27:47;11.30;;;8.27;;
10387;SDS011;5240;51.128;4.566;2023-05-10T12:30:18;11.65;;;9.63;;
10387;SDS011;5240;51.128;4.566;2023-05-10T12:32:48;9.75;;;8.63;;
10387;SDS011;5240;51.128;4.566;2023-05-10T12:35:15;11.52;;;9.18;;
10387;SDS011;5240;51.128;4.566;2023-05-10T12:37:45;11.07;;;9.27;;
10387;SDS011;5240;51.128;4.566;2023-05-10T12:40:12;11.73;;;9.18;;
10387;SDS011;5240;51.128;4.566;2023-05-10T12:42:40;12.98;;;9.52;;
10387;SDS011;5240;51.128;4.566;2023-05-10T12:45:07;11.25;;;9.48;;
10387;SDS011;5240;51.128;4.566;2023-05-10T12:47:37;11.23;;;9.40;;
10387;SDS011;5240;51.128;4.566;2023-05-10T12:50:04;10.98;;;9.15;;
10387;SDS011;5240;51.128;4.566;2023-05-10T12:52:32;11.40;;;10.20;;
10387;SDS011;5240;51.128;4.566;2023-05-10T12:54:59;11.20;;;10.00;;
10387;SDS011;5240;51.128;4.566;2023-05-10T12:57:26;10.65;;;9.50;;
10387;SDS011;5240;51.128;4.566;2023-05-10T12:59:53;10.70;;;9.48;;
10387;SDS011;5240;51.128;4.566;2023-05-10T13:02:21;11.57;;;9.45;;
10387;SDS011;5240;51.128;4.566;2023-05-10T13:04:49;11.80;;;9.02;;
10387;SDS011;5240;51.128;4.566;2023-05-10T13:07:17;10.57;;;9.57;;
10387;SDS011;5240;51.128;4.566;2023-05-10T13:09:44;12.35;;;10.02;;
10387;SDS011;5240;51.128;4.566;2023-05-10T13:12:11;10.05;;;9.00;;
10387;SDS011;5240;51.128;4.566;2023-05-10T13:14:38;10.77;;;9.63;;
10387;SDS011;5240;51.128;4.566;2023-05-10T13:17:06;11.02;;;10.00;;
10387;SDS011;5240;51.128;4.566;2023-05-10T13:19:33;11.43;;;10.02;;
10387;SDS011;5240;51.128;4.566;2023-05-10T13:22:02;11.82;;;9.77;;
10387;SDS011;5240;51.128;4.566;2023-05-10T13:24:29;10.02;;;8.80;;
10387;SDS011;5240;51.128;4.566;2023-05-10T13:26:56;9.80;;;8.73;;
10387;SDS011;5240;51.128;4.566;2023-05-10T13:29:23;9.07;;;7.88;;
10387;SDS011;5240;51.128;4.566;2023-05-10T13:31:50;9.70;;;8.57;;
10387;SDS011;5240;51.128;4.566;2023-05-10T13:34:17;9.50;;;8.60;;
10387;SDS011;5240;51.128;4.566;2023-05-10T13:36:46;10.05;;;8.80;;
10387;SDS011;5240;51.128;4.566;2023-05-10T13:39:15;10.50;;;8.25;;
10387;SDS011;5240;51.128;4.566;2023-05-10T13:41:42;10.23;;;8.27;;
10387;SDS011;5240;51.128;4.566;2023-05-10T13:44:11;14.85;;;9.52;;
10387;SDS011;5240;51.128;4.566;2023-05-10T13:46:38;10.27;;;9.20;;
10387;SDS011;5240;51.128;4.566;2023-05-10T13:49:05;10.23;;;9.18;;
10387;SDS011;5240;51.128;4.566;2023-05-10T13:51:33;10.10;;;9.10;;
10387;SDS011;5240;51.128;4.566;2023-05-10T13:54:00;12.00;;;10.00;;
10387;SDS011;5240;51.128;4.566;2023-05-10T13:56:29;10.90;;;9.80;;
10387;SDS011;5240;51.128;4.566;2023-05-10T13:58:56;10.90;;;9.10;;
10387;SDS011;5240;51.128;4.566;2023-05-10T14:01:23;12.98;;;10.25;;
10387;SDS011;5240;51.128;4.566;2023-05-10T14:03:50;12.48;;;10.23;;
10387;SDS011;5240;51.128;4.566;2023-05-10T14:06:18;14.00;;;10.43;;
10387;SDS011;5240;51.128;4.566;2023-05-10T14:08:45;11.30;;;10.20;;
10387;SDS011;5240;51.128;4.566;2023-05-10T14:11:12;14.18;;;10.25;;
10387;SDS011;5240;51.128;4.566;2023-05-10T14:13:40;11.93;;;10.68;;
10387;SDS011;5240;51.128;4.566;2023-05-10T14:16:07;11.45;;;10.25;;
10387;SDS011;5240;51.128;4.566;2023-05-10T14:18:34;12.57;;;10.25;;
10387;SDS011;5240;51.128;4.566;2023-05-10T14:21:01;11.07;;;9.88;;
10387;SDS011;5240;51.128;4.566;2023-05-10T14:23:29;10.77;;;9.73;;
10387;SDS011;5240;51.128;4.566;2023-05-10T14:25:56;11.88;;;10.20;;
10387;SDS011;5240;51.128;4.566;2023-05-10T14:28:23;11.13;;;9.98;;
10387;SDS011;5240;51.128;4.566;2023-05-10T14:30:52;11.23;;;10.13;;
10387;SDS011;5240;51.128;4.566;2023-05-10T14:33:19;11.95;;;10.45;;
10387;SDS011;5240;51.128;4.566;2023-05-10T14:35:47;13.88;;;11.00;;
10387;SDS011;5240;51.128;4.566;2023-05-10T14:38:14;12.77;;;10.70;;
10387;SDS011;5240;51.128;4.566;2023-05-10T14:40:41;13.20;;;10.95;;
10387;SDS011;5240;51.128;4.566;2023-05-10T14:43:08;12.20;;;11.00;;
10387;SDS011;5240;51.128;4.566;2023-05-10T14:45:35;13.27;;;11.48;;
10387;SDS011;5240;51.128;4.566;2023-05-10T14:48:04;12.20;;;11.00;;
10387;SDS011;5240;51.128;4.566;2023-05-10T14:50:31;13.38;;;10.48;;
10387;SDS011;5240;51.128;4.566;2023-05-10T14:52:58;13.45;;;11.70;;
10387;SDS011;5240;51.128;4.566;2023-05-10T14:55:25;14.45;;;11.55;;
10387;SDS011;5240;51.128;4.566;2023-05-10T14:57:52;13.65;;;12.25;;
10387;SDS011;5240;51.128;4.566;2023-05-10T15:00:20;13.40;;;11.05;;
10387;SDS011;5240;51.128;4.566;2023-05-10T15:02:47;15.13;;;11.85;;
10387;SDS011;5240;51.128;4.566;2023-05-10T15:05:15;16.58;;;12.18;;
10387;SDS011;5240;51.128;4.566;2023-05-10T15:07:43;15.60;;;12.25;;
10387;SDS011;5240;51.128;4.566;2023-05-10T15:10:10;16.15;;;12.23;;
10387;SDS011;5240;51.128;4.566;2023-05-10T15:12:38;15.60;;;13.30;;
10387;SDS011;5240;51.128;4.566;2023-05-10T15:15:05;15.30;;;12.85;;
10387;SDS011;5240;51.128;4.566;2023-05-10T15:17:33;16.95;;;13.95;;
10387;SDS011;5240;51.128;4.566;2023-05-10T15:20:00;14.00;;;12.60;;
10387;SDS011;5240;51.128;4.566;2023-05-10T15:22:29;16.38;;;13.25;;
10387;SDS011;5240;51.128;4.566;2023-05-10T15:24:57;14.68;;;12.85;;
10387;SDS011;5240;51.128;4.566;2023-05-10T15:27:24;9.45;;;8.32;;
10387;SDS011;5240;51.128;4.566;2023-05-10T15:29:52;7.70;;;6.38;;
10387;SDS011;5240;51.128;4.566;2023-05-10T15:32:19;8.10;;;6.13;;
10387;SDS011;5240;51.128;4.566;2023-05-10T15:34:46;8.13;;;6.20;;
10387;SDS011;5240;51.128;4.566;2023-05-10T15:37:13;5.43;;;4.63;;
10387;SDS011;5240;51.128;4.566;2023-05-10T15:39:41;4.68;;;3.70;;
10387;SDS011;5240;51.128;4.566;2023-05-10T15:42:08;3.22;;;2.50;;
10387;SDS011;5240;51.128;4.566;2023-05-10T15:44:35;4.10;;;2.60;;